Time;durP1;ratioP1;P1;durP2;ratioP2;P2;SDS_P1;SDS_P2;PMS_P1;PMS_P2;Temp;Humidity;BMP_temperature;BMP_pressure;BME280_temperature;BME280_humidity;BME280_pressure;Samples;Min_cycle;Max_cycle;Signal;HPM_P1;HPM_P2
2021/04/16 00:00:55;;;;;;;;;18.25;16.00;;;;;2.04;85.00;99966.16;3608428;39;9927;-59
2021/04/16 00:03:24;;;;;;;;;22.75;19.75;;;;;2.14;85.17;99967.72;3618169;39;9916;-59
2021/04/16 00:05:53;;;;;;;;;18.25;14.25;;;;;2.05;85.68;99957.31;3618773;39;9928;-59
2021/04/16 00:08:33;;;;;;;;;24.75;16.50;;;;;2.01;84.90;99955.66;3618749;39;9230;-59
2021/04/16 00:11:23;;;;;;;;;18.75;16.75;;;;;1.88;85.49;99961.19;3622538;39;9214;-60
2021/04/16 00:13:50;;;;;;;;;8.00;5.75;;;;;1.69;86.63;99951.94;3618654;39;9226;-59
2021/04/16 00:16:22;;;;;;;;;26.00;18.00;;;;;1.73;86.74;99956.22;3623784;39;9228;-58
2021/04/16 00:18:49;;;;;;;;;26.75;19.00;;;;;1.70;86.03;99956.31;3619425;39;9488;-59
2021/04/16 00:21:17;;;;;;;;;20.75;18.50;;;;;2.05;85.58;99959.94;3628942;39;9351;-60
2021/04/16 00:23:45;;;;;;;;;21.75;16.00;;;;;1.91;85.59;99955.84;3628635;39;9240;-59
2021/04/16 00:26:13;;;;;;;;;20.75;18.50;;;;;1.83;85.83;99952.50;3612279;39;9769;-58
2021/04/16 00:28:41;;;;;;;;;27.50;20.25;;;;;1.94;85.65;99953.13;3609002;39;9627;-58
2021/04/16 00:31:25;;;;;;;;;28.25;24.75;;;;;1.95;85.36;99946.94;3619316;39;9243;-60
2021/04/16 00:33:53;;;;;;;;;44.75;39.00;;;;;1.93;85.79;99946.09;3626826;39;9216;-58
2021/04/16 00:36:22;;;;;;;;;43.50;34.00;;;;;2.09;85.33;99948.41;3610706;39;9228;-59
2021/04/16 00:38:49;;;;;;;;;38.25;31.00;;;;;1.82;85.40;99942.81;3610998;39;9444;-59
2021/04/16 00:41:25;;;;;;;;;25.75;19.50;;;;;1.76;85.62;99940.28;3610489;39;9413;-58
2021/04/16 00:43:52;;;;;;;;;21.75;16.25;;;;;1.54;87.36;99946.03;3628812;39;9235;-60
2021/04/16 00:47:07;;;;;;;;;23.25;19.25;;;;;1.51;88.00;99946.09;3625779;39;9238;-60
2021/04/16 00:49:42;;;;;;;;;20.75;16.50;;;;;1.28;88.33;99949.19;3584795;40;9497;-59
2021/04/16 00:52:11;;;;;;;;;27.75;21.00;;;;;1.40;88.48;99955.16;3596733;39;9267;-59
2021/04/16 00:54:42;;;;;;;;;26.25;20.50;;;;;1.61;87.26;99948.56;3618191;39;9219;-59
2021/04/16 00:57:13;;;;;;;;;23.75;19.00;;;;;1.53;86.85;99948.72;3591417;39;9252;-60
2021/04/16 00:59:57;;;;;;;;;23.75;17.50;;;;;1.44;88.13;99951.53;3604968;39;9274;-59
2021/04/16 01:02:25;;;;;;;;;27.00;18.75;;;;;1.60;87.53;99949.47;3621078;39;9224;-59
2021/04/16 01:04:54;;;;;;;;;28.50;22.50;;;;;1.44;88.72;99944.47;3623176;39;9236;-60
2021/04/16 01:07:22;;;;;;;;;23.50;20.50;;;;;1.33;88.53;99949.13;3619039;39;9320;-60
2021/04/16 01:09:50;;;;;;;;;30.75;24.00;;;;;1.42;88.54;99951.59;3622102;39;9239;-60
2021/04/16 01:12:19;;;;;;;;;25.00;21.25;;;;;1.53;87.74;99944.31;3609105;39;9253;-60
2021/04/16 01:14:50;;;;;;;;;29.50;20.75;;;;;1.52;87.49;99942.53;3617655;39;9222;-60
2021/04/16 01:17:18;;;;;;;;;27.25;20.75;;;;;1.57;87.16;99949.53;3621874;39;9232;-60
2021/04/16 01:19:51;;;;;;;;;32.00;23.50;;;;;1.34;88.36;99948.19;3624515;39;9411;-59
2021/04/16 01:22:29;;;;;;;;;29.00;23.00;;;;;1.40;88.76;99953.41;3628748;39;9247;-59
2021/04/16 01:24:58;;;;;;;;;25.50;21.50;;;;;1.32;88.89;99947.38;3625795;39;9237;-60
2021/04/16 01:27:28;;;;;;;;;26.25;23.00;;;;;1.30;88.79;99946.53;3618231;39;9249;-59
2021/04/16 01:29:55;;;;;;;;;27.25;18.00;;;;;1.29;89.46;99944.78;3618363;39;9250;-59
2021/04/16 01:32:31;;;;;;;;;30.50;21.75;;;;;1.45;88.43;99940.94;3617819;39;9249;-59
2021/04/16 01:34:58;;;;;;;;;34.00;24.25;;;;;1.33;88.54;99946.47;3618102;39;9218;-60
2021/04/16 01:37:29;;;;;;;;;31.50;23.50;;;;;1.26;89.29;99944.84;3618833;39;9698;-59
2021/04/16 01:39:56;;;;;;;;;25.75;24.50;;;;;1.35;88.80;99936.75;3617902;39;9451;-60
2021/04/16 01:42:24;;;;;;;;;26.25;23.50;;;;;1.43;88.38;99940.09;3620555;39;9350;-59
2021/04/16 01:44:51;;;;;;;;;28.25;23.50;;;;;1.13;89.84;99944.19;3609015;39;9257;-59
2021/04/16 01:47:18;;;;;;;;;24.25;21.25;;;;;1.36;88.77;99946.41;3614646;39;9206;-60
2021/04/16 01:49:52;;;;;;;;;33.00;25.00;;;;;1.37;88.38;99945.53;3620421;39;9208;-59
2021/04/16 01:52:28;;;;;;;;;20.50;17.25;;;;;0.99;89.63;99946.25;3617675;39;9249;-59
2021/04/16 01:54:55;;;;;;;;;30.50;22.75;;;;;1.07;89.64;99939.03;3626075;39;9198;-59
2021/04/16 01:57:35;;;;;;;;;25.50;22.00;;;;;1.06;89.34;99939.94;3614280;39;9431;-59
2021/04/16 02:00:30;;;;;;;;;26.00;21.25;;;;;0.93;90.53;99939.31;3618174;39;9292;-59
2021/04/16 02:02:57;;;;;;;;;38.00;24.50;;;;;1.05;89.83;99940.84;3604432;39;9212;-59
2021/04/16 02:05:24;;;;;;;;;31.00;24.50;;;;;1.08;90.52;99939.03;3624864;39;9240;-59
2021/04/16 02:07:53;;;;;;;;;33.75;22.75;;;;;0.97;90.11;99933.03;3600953;39;9220;-59
2021/04/16 02:10:22;;;;;;;;;29.75;22.00;;;;;0.94;90.22;99932.25;3614811;39;9211;-59
2021/04/16 02:12:50;;;;;;;;;27.00;24.75;;;;;1.13;89.53;99933.63;3624249;39;9224;-59
2021/04/16 02:15:17;;;;;;;;;31.75;25.50;;;;;1.09;90.18;99927.53;3615119;39;9230;-59
2021/04/16 02:17:44;;;;;;;;;32.25;20.00;;;;;1.10;89.78;99928.41;3619121;39;9232;-59
2021/04/16 02:20:19;;;;;;;;;26.50;24.50;;;;;1.16;89.55;99928.31;3627833;39;9252;-60
2021/04/16 02:22:47;;;;;;;;;23.50;19.50;;;;;1.35;88.87;99922.66;3628303;39;9243;-59
2021/04/16 02:25:15;;;;;;;;;27.50;21.50;;;;;1.03;88.93;99924.16;3623551;39;9240;-59
2021/04/16 02:27:41;;;;;;;;;29.25;21.25;;;;;0.90;90.44;99926.16;3598573;39;9352;-58
2021/04/16 02:30:15;;;;;;;;;28.75;24.00;;;;;1.06;90.87;99924.09;3615653;39;9245;-59
2021/04/16 02:32:42;;;;;;;;;38.50;29.50;;;;;1.05;90.62;99919.69;3608823;39;9249;-60
2021/04/16 02:35:11;;;;;;;;;27.50;24.00;;;;;1.06;89.91;99911.72;3617548;39;9250;-60
2021/04/16 02:37:38;;;;;;;;;30.00;22.50;;;;;0.86;91.03;99920.03;3617540;39;9750;-59
2021/04/16 02:40:10;;;;;;;;;29.25;23.50;;;;;0.75;90.83;99921.13;3619417;39;9242;-60
2021/04/16 02:42:36;;;;;;;;;34.00;24.00;;;;;0.96;90.63;99919.88;3612476;39;9294;-60
2021/04/16 02:45:09;;;;;;;;;24.50;20.00;;;;;0.90;90.43;99912.94;3623033;39;9251;-59
2021/04/16 02:47:36;;;;;;;;;33.00;24.25;;;;;1.04;90.64;99918.81;3622804;39;9254;-59
2021/04/16 02:50:08;;;;;;;;;33.50;28.00;;;;;0.84;90.17;99918.31;3617417;39;9304;-59
2021/04/16 02:52:35;;;;;;;;;35.50;26.50;;;;;0.93;90.24;99920.78;3613910;39;9228;-59
2021/04/16 02:55:02;;;;;;;;;26.50;20.00;;;;;0.93;90.63;99925.22;3618202;39;9218;-59
2021/04/16 02:57:29;;;;;;;;;28.50;24.50;;;;;0.85;90.25;99923.56;3618796;39;9248;-60
2021/04/16 02:59:56;;;;;;;;;36.25;24.50;;;;;0.92;90.94;99932.25;3621923;39;9258;-60
2021/04/16 03:02:23;;;;;;;;;30.00;21.50;;;;;1.06;90.02;99930.25;3626892;39;9224;-59
2021/04/16 03:04:50;;;;;;;;;28.75;20.25;;;;;1.02;90.28;99930.31;3617555;39;9245;-59
2021/04/16 03:07:17;;;;;;;;;27.25;21.75;;;;;1.10;90.12;99931.91;3625882;39;9236;-59
2021/04/16 03:09:44;;;;;;;;;27.75;20.50;;;;;0.84;89.88;99932.41;3623330;39;9238;-59
2021/04/16 03:12:11;;;;;;;;;11.00;9.00;;;;;0.78;90.60;99947.50;3624526;39;9256;-59
2021/04/16 03:14:38;;;;;;;;;33.25;20.50;;;;;0.76;89.73;99944.88;3626558;39;9278;-59
2021/04/16 03:17:05;;;;;;;;;20.50;18.50;;;;;0.82;89.73;99954.50;3613283;39;9230;-59
2021/04/16 03:19:32;;;;;;;;;37.50;20.00;;;;;0.88;90.31;99949.09;3621307;39;9274;-59
2021/04/16 03:21:59;;;;;;;;;30.00;24.50;;;;;0.74;90.30;99951.06;3618141;39;9281;-60
2021/04/16 03:24:26;;;;;;;;;22.00;18.75;;;;;0.79;90.33;99949.22;3627707;39;9235;-61
2021/04/16 03:26:53;;;;;;;;;32.75;22.25;;;;;0.73;90.92;99952.00;3618643;39;9238;-59
2021/04/16 03:29:19;;;;;;;;;40.00;23.25;;;;;0.87;90.15;99952.63;3617147;39;9246;-59
2021/04/16 03:31:46;;;;;;;;;29.00;19.75;;;;;0.87;89.32;99957.94;3623288;39;9220;-60
2021/04/16 03:34:14;;;;;;;;;22.00;19.50;;;;;0.63;90.36;99952.16;3627585;39;9351;-59
2021/04/16 03:36:41;;;;;;;;;25.25;23.75;;;;;0.60;91.25;99959.25;3624569;39;9213;-60
2021/04/16 03:39:07;;;;;;;;;28.00;25.00;;;;;0.69;91.28;99952.97;3628880;39;9236;-59
2021/04/16 03:41:34;;;;;;;;;30.75;21.25;;;;;0.93;91.18;99956.94;3628843;39;9244;-59
2021/04/16 03:44:01;;;;;;;;;25.00;19.00;;;;;0.91;89.87;99954.31;3628938;39;9255;-59
2021/04/16 03:46:28;;;;;;;;;26.50;18.75;;;;;0.66;90.28;99953.88;3623065;39;9230;-59
2021/04/16 03:48:55;;;;;;;;;28.25;22.75;;;;;0.65;91.14;99955.63;3618375;39;9250;-60
2021/04/16 03:51:22;;;;;;;;;34.75;26.50;;;;;0.61;90.91;99946.03;3608813;39;9243;-59
2021/04/16 03:53:49;;;;;;;;;37.00;24.75;;;;;0.67;90.80;99955.63;3627698;39;9239;-60
2021/04/16 03:56:17;;;;;;;;;36.25;25.75;;;;;0.65;91.08;99947.69;3621408;39;9222;-59
2021/04/16 03:58:45;;;;;;;;;36.00;22.00;;;;;0.92;91.09;99956.03;3626717;39;9231;-59
2021/04/16 04:01:15;;;;;;;;;23.75;21.50;;;;;0.77;90.67;99948.41;3620843;39;9253;-59
2021/04/16 04:03:42;;;;;;;;;35.75;28.50;;;;;0.60;90.53;99954.81;3618677;39;9218;-59
2021/04/16 04:06:09;;;;;;;;;31.50;27.25;;;;;0.87;90.55;99957.94;3618677;39;9273;-59
2021/04/16 04:08:36;;;;;;;;;36.50;31.00;;;;;0.58;90.18;99954.00;3618803;39;9407;-60
2021/04/16 04:11:04;;;;;;;;;31.75;23.25;;;;;0.86;90.01;99958.81;3628460;39;9328;-59
2021/04/16 04:13:31;;;;;;;;;43.25;28.50;;;;;0.48;91.40;99955.06;3629116;39;9266;-59
2021/04/16 04:15:59;;;;;;;;;35.25;23.75;;;;;0.82;90.61;99957.13;3622400;39;9226;-60
2021/04/16 04:18:30;;;;;;;;;29.00;21.25;;;;;0.80;90.46;99961.56;3618592;39;9238;-59
2021/04/16 04:20:59;;;;;;;;;42.00;36.50;;;;;0.69;90.15;99958.25;3617207;39;9276;-60
2021/04/16 04:23:26;;;;;;;;;32.75;26.50;;;;;0.71;90.92;99964.34;3618875;39;9253;-60
2021/04/16 04:25:56;;;;;;;;;37.25;32.50;;;;;0.61;90.38;99961.00;3616999;39;9963;-59
2021/04/16 04:28:24;;;;;;;;;32.50;24.75;;;;;0.75;91.76;99958.13;3611958;39;9231;-60
2021/04/16 04:30:51;;;;;;;;;35.75;29.50;;;;;1.06;90.04;99958.47;3618740;39;9423;-60
2021/04/16 04:33:17;;;;;;;;;45.00;28.25;;;;;0.99;90.11;99962.09;3619587;39;9276;-59
2021/04/16 04:35:45;;;;;;;;;39.25;31.50;;;;;1.20;89.78;99960.84;3618256;39;9222;-59
2021/04/16 04:38:12;;;;;;;;;46.75;31.50;;;;;1.00;89.78;99959.44;3618656;39;9254;-59
2021/04/16 04:40:39;;;;;;;;;33.25;28.75;;;;;1.47;89.26;99965.56;3621850;39;9240;-59
2021/04/16 04:43:06;;;;;;;;;26.25;23.75;;;;;1.52;87.94;99968.13;3618370;39;9443;-59
2021/04/16 04:45:33;;;;;;;;;30.25;24.75;;;;;1.92;87.16;99968.19;3618178;39;9240;-60
2021/04/16 04:48:00;;;;;;;;;34.75;22.00;;;;;4.15;79.65;99967.63;3618628;39;9243;-60
2021/04/16 04:50:27;;;;;;;;;28.25;22.25;;;;;4.84;73.93;99968.06;3618460;39;9231;-60
2021/04/16 04:52:56;;;;;;;;;24.75;22.00;;;;;4.77;73.75;99972.75;3623066;39;9734;-60
2021/04/16 04:55:32;;;;;;;;;32.75;21.00;;;;;4.70;74.05;99975.66;3609185;39;9934;-60
2021/04/16 04:57:59;;;;;;;;;27.50;20.75;;;;;5.31;73.47;99975.34;3612841;39;9878;-60
2021/04/16 05:00:27;;;;;;;;;32.33;23.00;;;;;4.40;74.57;99973.06;3608995;39;9946;-60
2021/04/16 05:02:55;;;;;;;;;35.50;27.25;;;;;2.95;81.06;99967.50;3618121;39;10005;-59
2021/04/16 05:05:23;;;;;;;;;28.25;18.50;;;;;3.30;81.76;99970.09;3614858;39;10228;-60
2021/04/16 05:07:51;;;;;;;;;31.25;21.75;;;;;4.95;73.61;99976.59;3611983;39;9891;-60
2021/04/16 05:10:18;;;;;;;;;29.50;21.50;;;;;3.40;78.29;99972.50;3628144;39;10019;-60
2021/04/16 05:12:46;;;;;;;;;29.25;22.75;;;;;3.13;80.13;99972.31;3619311;39;9909;-59
2021/04/16 05:15:15;;;;;;;;;31.75;21.50;;;;;3.35;80.37;99969.09;3618544;39;10286;-59
2021/04/16 05:17:42;;;;;;;;;27.75;23.00;;;;;3.28;79.59;99969.25;3624845;39;9972;-59
2021/04/16 05:20:10;;;;;;;;;23.75;21.00;;;;;3.58;80.02;99973.75;3622002;39;10152;-59
2021/04/16 05:22:37;;;;;;;;;38.00;25.50;;;;;3.59;79.38;99971.06;3614270;39;10138;-60
2021/04/16 05:25:05;;;;;;;;;26.25;19.00;;;;;3.51;78.71;99981.03;3615924;39;10193;-60
2021/04/16 05:27:32;;;;;;;;;27.00;18.25;;;;;3.99;79.53;99972.53;3609022;39;9759;-59
2021/04/16 05:30:00;;;;;;;;;30.00;24.25;;;;;4.60;76.68;99975.94;3618316;39;10586;-60
2021/04/16 05:32:27;;;;;;;;;29.00;15.75;;;;;5.19;73.21;99971.34;3618601;39;9993;-59
2021/04/16 05:34:54;;;;;;;;;32.00;23.00;;;;;5.48;71.85;99970.31;3620319;39;10071;-60
2021/04/16 05:37:21;;;;;;;;;26.67;20.33;;;;;4.39;75.72;99968.66;3576467;40;11967;-59
2021/04/16 05:39:51;;;;;;;;;19.00;17.33;;;;;4.42;76.17;99979.19;3594075;40;10177;-60
2021/04/16 05:42:20;;;;;;;;;31.33;22.00;;;;;4.79;75.08;99989.53;3592599;40;10084;-60
2021/04/16 05:44:48;;;;;;;;;31.33;18.33;;;;;5.65;71.63;99975.88;3596503;39;10295;-59
2021/04/16 05:47:15;;;;;;;;;26.33;22.00;;;;;4.88;73.52;99985.69;3587646;40;10234;-59
2021/04/16 05:49:42;;;;;;;;;23.00;20.00;;;;;5.60;72.03;99977.81;3587349;40;10229;-60
2021/04/16 05:52:10;;;;;;;;;27.67;24.00;;;;;5.00;73.60;99982.63;3588279;40;10132;-60
2021/04/16 05:54:38;;;;;;;;;19.67;19.00;;;;;5.49;72.25;99978.22;3587335;40;10056;-59
2021/04/16 05:57:06;;;;;;;;;30.00;22.33;;;;;4.35;75.85;99983.84;3589064;40;10156;-59
2021/04/16 05:59:32;;;;;;;;;30.00;22.00;;;;;4.59;75.33;99976.88;3600094;39;10105;-60
2021/04/16 06:01:59;;;;;;;;;20.67;19.33;;;;;6.44;69.56;99971.09;3595267;40;10269;-59
2021/04/16 06:04:28;;;;;;;;;20.00;20.00;;;;;7.09;64.27;99981.81;3587229;40;10166;-60
2021/04/16 06:07:15;;;;;;;;;21.33;17.33;;;;;6.52;66.90;99985.00;3592694;39;9969;-60
2021/04/16 06:09:42;;;;;;;;;28.67;22.33;;;;;5.69;70.60;99981.97;3592990;40;9982;-60
2021/04/16 06:12:09;;;;;;;;;29.00;22.33;;;;;7.35;65.93;99980.69;3594391;39;10058;-59
2021/04/16 06:14:36;;;;;;;;;23.00;19.67;;;;;7.55;64.41;99977.97;3595110;39;10118;-60
2021/04/16 06:17:22;;;;;;;;;25.00;19.67;;;;;7.42;64.17;99987.47;3588597;39;10004;-59
2021/04/16 06:19:50;;;;;;;;;20.67;18.00;;;;;9.07;60.70;99986.00;3594610;39;9935;-60
2021/04/16 06:22:20;;;;;;;;;25.67;21.00;;;;;8.22;61.19;99995.44;3598166;39;9887;-61
2021/04/16 06:24:50;;;;;;;;;19.67;19.33;;;;;8.03;61.68;99994.53;3595863;39;9771;-60
2021/04/16 06:27:18;;;;;;;;;25.33;19.33;;;;;10.09;56.70;99991.31;3596757;39;9777;-60
2021/04/16 06:29:45;;;;;;;;;17.67;17.67;;;;;9.74;56.38;99990.56;3598244;39;9850;-61
2021/04/16 06:32:15;;;;;;;;;22.67;17.67;;;;;10.26;55.34;99997.56;3596476;39;11152;-61
2021/04/16 06:34:42;;;;;;;;;18.00;17.25;;;;;11.37;52.86;100002.84;3602433;39;10554;-61
2021/04/16 06:37:10;;;;;;;;;24.50;19.50;;;;;10.70;53.26;99997.78;3607734;39;14886;-60
2021/04/16 06:39:37;;;;;;;;;18.00;16.75;;;;;12.79;48.16;99993.06;3604308;39;14230;-60
2021/04/16 06:42:28;;;;;;;;;23.00;16.50;;;;;13.43;46.98;99989.72;3597738;39;14055;-60
2021/04/16 06:45:04;;;;;;;;;19.00;17.00;;;;;15.19;43.29;99998.63;3597333;39;14081;-61
2021/04/16 06:47:43;;;;;;;;;22.50;16.75;;;;;16.03;40.81;99993.97;3601701;39;14358;-59
2021/04/16 06:50:16;;;;;;;;;17.00;16.25;;;;;14.64;42.36;100006.34;3600084;39;14126;-60
2021/04/16 06:53:04;;;;;;;;;22.50;17.50;;;;;15.52;41.35;100003.31;3599554;39;13951;-60
2021/04/16 06:55:43;;;;;;;;;17.75;17.00;;;;;13.41;46.18;100002.47;3595906;39;13966;-60
2021/04/16 06:58:30;;;;;;;;;22.50;17.00;;;;;14.95;42.08;100008.59;3596292;39;13982;-59
2021/04/16 07:01:23;;;;;;;;;13.50;13.50;;;;;14.90;42.05;100008.94;3594869;39;14015;-59
2021/04/16 07:04:23;;;;;;;;;19.25;15.50;;;;;9.70;55.38;100020.28;3598084;39;13901;-60
2021/04/16 07:06:57;;;;;;;;;15.25;14.00;;;;;7.77;62.14;100017.13;3602378;39;13962;-59
2021/04/16 07:09:32;;;;;;;;;17.75;16.25;;;;;6.66;65.69;100018.25;3604238;39;14546;-59
2021/04/16 07:12:15;;;;;;;;;17.33;16.67;;;;;7.22;64.83;100012.38;3606324;39;13996;-60
2021/04/16 07:14:52;;;;;;;;;22.00;16.00;;;;;7.46;63.94;100011.31;3607282;39;10337;-59
2021/04/16 07:17:25;;;;;;;;;14.33;13.33;;;;;6.85;64.11;100010.41;3603485;39;9866;-60
2021/04/16 07:19:53;;;;;;;;;22.67;16.00;;;;;12.15;51.68;100008.84;3600707;39;10018;-59
2021/04/16 07:22:44;;;;;;;;;19.75;15.25;;;;;13.55;46.86;100010.47;3597911;39;10486;-58
2021/04/16 07:25:20;;;;;;;;;19.75;16.00;;;;;14.72;43.22;100008.50;3603754;39;13999;-59
2021/04/16 07:27:56;;;;;;;;;18.75;15.75;;;;;15.33;41.59;100012.00;3594842;39;14053;-59
2021/04/16 07:30:46;;;;;;;;;18.00;14.75;;;;;9.54;54.63;100006.81;3593380;40;14044;-59
2021/04/16 07:33:38;;;;;;;;;15.75;14.50;;;;;7.94;59.68;100006.53;3594366;39;14413;-59
2021/04/16 07:36:37;;;;;;;;;20.25;16.25;;;;;7.66;61.69;100015.81;3596247;39;14008;-60
2021/04/16 07:39:13;;;;;;;;;13.75;12.75;;;;;8.18;59.12;100011.69;3608377;39;10849;-59
2021/04/16 07:41:54;;;;;;;;;14.75;14.75;;;;;7.85;60.54;100012.31;3594369;39;14132;-61
2021/04/16 07:44:34;;;;;;;;;14.33;14.00;;;;;8.18;58.85;100014.38;3596250;39;10577;-59
2021/04/16 07:47:16;;;;;;;;;22.00;18.33;;;;;7.58;60.93;100020.63;3601447;39;9938;-60
2021/04/16 07:50:27;;;;;;;;;18.00;14.67;;;;;8.32;61.09;100019.91;3595010;39;9954;-58
2021/04/16 07:52:54;;;;;;;;;16.33;14.00;;;;;7.57;62.01;100026.03;3595597;39;10238;-59
2021/04/16 07:55:29;;;;;;;;;15.33;15.00;;;;;8.09;60.40;100021.00;3598922;39;9795;-59
2021/04/16 07:58:02;;;;;;;;;28.33;19.67;;;;;8.65;59.64;100017.50;3603348;39;9831;-59
2021/04/16 08:00:42;;;;;;;;;15.67;15.67;;;;;8.15;59.65;100020.72;3600233;39;10273;-59
2021/04/16 08:03:26;;;;;;;;;19.67;17.00;;;;;8.64;59.13;100020.25;3599402;39;9971;-59
2021/04/16 08:05:59;;;;;;;;;24.67;17.67;;;;;8.70;59.57;100027.97;3595246;39;10660;-60
2021/04/16 08:08:33;;;;;;;;;19.67;15.00;;;;;8.04;59.02;100023.88;3601681;39;10414;-59
2021/04/16 08:11:06;;;;;;;;;10.00;7.33;;;;;7.40;61.16;100026.75;3595791;39;9788;-60
2021/04/16 08:13:43;;;;;;;;;13.33;12.67;;;;;8.45;58.49;100029.16;3600544;39;9824;-60
2021/04/16 08:16:28;;;;;;;;;15.33;12.00;;;;;8.52;58.34;100027.91;3595154;39;10209;-60
2021/04/16 08:19:16;;;;;;;;;17.67;15.00;;;;;9.87;57.19;100029.16;3601700;39;10329;-60
2021/04/16 08:21:51;;;;;;;;;16.75;15.50;;;;;9.07;57.09;100024.34;3595508;39;10866;-60
2021/04/16 08:24:42;;;;;;;;;14.75;11.00;;;;;8.67;59.15;100022.78;3595042;39;10624;-60
2021/04/16 08:27:40;;;;;;;;;14.00;12.50;;;;;9.40;56.23;100023.59;3596701;39;13997;-61
2021/04/16 08:30:29;;;;;;;;;17.25;15.75;;;;;9.74;56.40;100025.41;3603059;39;14166;-60
2021/04/16 08:33:25;;;;;;;;;10.50;10.25;;;;;8.47;58.26;100040.63;3598917;39;14001;-59
2021/04/16 08:36:20;;;;;;;;;12.00;11.67;;;;;8.72;57.41;100031.47;3603787;39;13992;-60
2021/04/16 08:39:17;;;;;;;;;16.00;14.33;;;;;9.41;56.10;100031.56;3608745;39;10595;-60
2021/04/16 08:42:02;;;;;;;;;12.75;12.00;;;;;9.55;53.69;100027.28;3603144;39;10729;-60
2021/04/16 08:44:37;;;;;;;;;14.00;13.00;;;;;9.50;55.99;100034.72;3614496;39;14491;-61
2021/04/16 08:47:19;;;;;;;;;84.75;62.00;;;;;8.90;56.66;100033.25;3603677;39;14172;-60
2021/04/16 08:49:46;;;;;;;;;46.33;39.00;;;;;9.16;58.12;100042.66;3604878;39;9892;-59
2021/04/16 08:52:17;;;;;;;;;21.25;16.00;;;;;9.71;56.07;100038.94;3597404;39;10802;-59
2021/04/16 08:54:49;;;;;;;;;23.00;22.50;;;;;10.18;55.93;100040.06;3604580;39;10767;-61
2021/04/16 08:57:29;;;;;;;;;15.50;13.25;;;;;9.97;56.94;100039.38;3605869;39;14262;-60
2021/04/16 09:00:27;;;;;;;;;18.75;15.50;;;;;9.31;57.39;100046.38;3607216;39;14052;-59
2021/04/16 09:02:58;;;;;;;;;19.50;15.50;;;;;8.45;58.80;100044.34;3591845;39;14061;-59
2021/04/16 09:05:38;;;;;;;;;16.50;15.25;;;;;8.34;59.10;100052.81;3595630;40;10697;-57
2021/04/16 09:08:08;;;;;;;;;24.67;18.00;;;;;8.57;59.67;100049.97;3595158;40;14165;-63
2021/04/16 09:10:49;;;;;;;;;15.33;13.33;;;;;8.19;58.05;100053.53;3603572;39;9948;-61
2021/04/16 09:13:40;;;;;;;;;14.00;11.00;;;;;8.08;57.83;100040.66;3606240;39;9823;-61
2021/04/16 09:16:43;;;;;;;;;27.67;22.67;;;;;8.34;57.46;100047.47;3613529;39;10391;-60
2021/04/16 09:19:43;;;;;;;;;15.00;13.67;;;;;8.30;57.81;100051.25;3606793;39;10170;-60
2021/04/16 09:22:16;;;;;;;;;22.00;15.67;;;;;8.04;60.36;100052.44;3595013;40;9797;-60
2021/04/16 09:24:52;;;;;;;;;21.67;15.00;;;;;8.00;59.18;100051.69;3595925;39;9813;-60
2021/04/16 09:27:31;;;;;;;;;15.33;12.33;;;;;8.16;57.58;100042.97;3595558;39;9990;-60
2021/04/16 09:30:06;;;;;;;;;11.33;11.33;;;;;8.33;57.91;100048.44;3601047;39;10266;-60
2021/04/16 09:32:33;;;;;;;;;17.33;14.33;;;;;8.48;58.27;100054.91;3606581;39;9836;-60
2021/04/16 09:35:04;;;;;;;;;14.00;14.00;;;;;8.18;58.35;100051.81;3595560;39;9802;-60
2021/04/16 09:37:43;;;;;;;;;16.67;15.33;;;;;8.27;58.70;100054.06;3603590;39;9831;-62
2021/04/16 09:40:23;;;;;;;;;15.33;12.33;;;;;8.01;59.26;100052.59;3599096;39;9783;-59
2021/04/16 09:43:08;;;;;;;;;19.33;14.67;;;;;7.77;58.89;100058.09;3596325;39;9762;-61
2021/04/16 09:45:51;;;;;;;;;9.67;9.67;;;;;7.92;58.14;100051.16;3596355;40;9976;-60
2021/04/16 09:48:18;;;;;;;;;16.33;13.33;;;;;8.41;57.42;100057.00;3595791;39;9823;-61
2021/04/16 09:50:56;;;;;;;;;12.33;11.00;;;;;8.08;57.77;100046.00;3604489;39;10422;-60
2021/04/16 09:53:34;;;;;;;;;36.33;25.67;;;;;8.21;56.45;100051.66;3606479;39;9950;-60
2021/04/16 09:56:02;;;;;;;;;32.33;22.33;;;;;8.22;57.53;100046.25;3600053;39;10451;-59
2021/04/16 09:58:35;;;;;;;;;28.33;16.67;;;;;8.48;58.66;100053.09;3605433;39;9912;-60
2021/04/16 10:01:15;;;;;;;;;24.33;19.67;;;;;8.43;58.36;100046.22;3595647;39;10014;-59
2021/04/16 10:03:50;;;;;;;;;29.33;24.00;;;;;8.48;59.07;100053.09;3595276;40;10156;-59
2021/04/16 10:06:38;;;;;;;;;21.00;18.00;;;;;9.30;57.76;100041.97;3595218;40;9833;-60
2021/04/16 10:09:26;;;;;;;;;20.33;18.00;;;;;9.94;55.36;100042.25;3596831;39;10042;-60
2021/04/16 10:12:03;;;;;;;;;16.67;12.67;;;;;9.86;54.90;100045.34;3596103;39;10581;-61
2021/04/16 10:14:39;;;;;;;;;20.67;17.33;;;;;10.22;55.10;100049.69;3594902;39;14105;-61
2021/04/16 10:17:29;;;;;;;;;21.00;18.50;;;;;9.12;56.58;100045.56;3595750;39;10787;-61
2021/04/16 10:20:03;;;;;;;;;22.67;19.67;;;;;10.09;56.68;100033.38;3596360;39;10561;-60
2021/04/16 10:22:36;;;;;;;;;18.50;16.00;;;;;9.49;56.19;100033.84;3595801;39;14084;-60
2021/04/16 12:41:37;;;;;;;;;24.67;21.33;;;;;8.10;61.02;100057.50;3587723;40;9865;-56
2021/04/16 12:44:07;;;;;;;;;19.33;17.33;;;;;8.19;61.07;100062.44;3572052;40;12096;-55
2021/04/16 12:46:39;;;;;;;;;29.00;25.33;;;;;8.14;61.36;100057.31;3577012;40;10052;-56
2021/04/16 12:49:08;;;;;;;;;18.67;16.67;;;;;8.13;61.19;100065.38;3579147;40;10521;-54
2021/04/16 12:51:35;;;;;;;;;19.67;19.00;;;;;8.31;61.09;100063.69;3572255;40;9894;-56
2021/04/16 12:54:02;;;;;;;;;26.00;20.00;;;;;8.25;61.45;100053.28;3574645;40;9891;-54
2021/04/16 12:56:41;;;;;;;;;31.00;21.33;;;;;8.08;60.93;100062.94;3567494;40;9976;-54
2021/04/16 12:59:15;;;;;;;;;36.33;24.00;;;;;8.46;61.24;100063.00;3568174;40;10172;-57
2021/04/16 13:01:45;;;;;;;;;28.00;20.00;;;;;8.43;61.93;100062.28;3573208;40;10066;-56
2021/04/16 13:04:15;;;;;;;;;28.33;25.33;;;;;8.53;61.66;100056.44;3566580;40;9968;-56
2021/04/16 13:06:47;;;;;;;;;29.67;19.00;;;;;8.32;61.71;100049.34;3569170;40;9887;-56
2021/04/16 13:09:18;;;;;;;;;31.33;23.33;;;;;8.05;60.91;100056.84;3566160;40;9904;-56
2021/04/16 13:11:48;;;;;;;;;38.33;26.00;;;;;7.98;62.43;100053.59;3567213;40;9924;-56
2021/04/16 13:14:17;;;;;;;;;27.33;21.67;;;;;8.18;62.86;100050.00;3570658;40;9894;-55
2021/04/16 13:16:45;;;;;;;;;21.00;19.67;;;;;8.12;61.89;100048.47;3577279;40;10051;-56
2021/04/16 13:19:33;;;;;;;;;25.67;23.33;;;;;8.14;61.85;100045.75;3572506;40;10039;-55
2021/04/16 13:22:16;;;;;;;;;26.67;17.67;;;;;8.26;61.66;100053.19;3566960;40;10403;-56
2021/04/16 13:24:44;;;;;;;;;28.67;20.33;;;;;7.86;62.18;100051.47;3571909;40;9999;-54
2021/04/16 13:27:32;;;;;;;;;24.00;22.33;;;;;8.30;62.06;100040.56;3568654;40;10034;-55
2021/04/16 13:29:59;;;;;;;;;26.67;15.00;;;;;8.12;61.60;100052.97;3567309;40;9805;-56
2021/04/16 13:32:35;;;;;;;;;20.00;18.33;;;;;8.25;61.15;100042.56;3567434;40;10419;-57
2021/04/16 13:35:03;;;;;;;;;14.67;7.00;;;;;8.26;62.30;100044.28;3573027;40;9839;-54
2021/04/16 13:37:32;;;;;;;;;18.00;18.00;;;;;8.31;61.83;100042.28;3577435;40;10127;-55
2021/04/16 13:39:59;;;;;;;;;26.33;22.67;;;;;8.18;62.62;100036.63;3576134;40;9867;-56
2021/04/16 13:42:26;;;;;;;;;22.00;19.00;;;;;8.38;62.40;100049.09;3566218;40;9949;-55
2021/04/16 13:44:53;;;;;;;;;26.33;23.00;;;;;8.20;63.14;100041.91;3571185;40;9903;-57
2021/04/16 13:47:25;;;;;;;;;22.00;19.33;;;;;8.10;63.27;100034.28;3577594;40;10061;-55
2021/04/16 13:49:57;;;;;;;;;22.67;22.67;;;;;8.21;63.32;100033.81;3581539;40;10063;-54
2021/04/16 13:52:26;;;;;;;;;28.67;25.00;;;;;7.81;62.89;100037.44;3566548;40;10007;-58
2021/04/16 13:54:53;;;;;;;;;27.00;21.33;;;;;7.80;62.68;100027.69;3574604;40;9890;-57
2021/04/16 13:57:21;;;;;;;;;30.67;23.67;;;;;8.08;62.09;100022.81;3567645;40;10205;-56
2021/04/16 13:59:48;;;;;;;;;34.33;24.67;;;;;7.94;62.50;100022.56;3568484;40;10019;-57
2021/04/16 14:02:25;;;;;;;;;28.67;23.00;;;;;8.11;63.31;100028.03;3574079;40;9977;-54
2021/04/16 14:04:54;;;;;;;;;31.00;27.33;;;;;8.13;63.19;100027.94;3569390;40;9964;-55
2021/04/16 14:07:22;;;;;;;;;23.00;21.67;;;;;8.01;62.77;100023.16;3571458;40;9951;-55
2021/04/16 14:09:49;;;;;;;;;34.00;26.00;;;;;8.27;63.47;100030.00;3576071;40;10022;-57